Time;durP1;ratioP1;P1;durP2;ratioP2;P2;SDS_P1;SDS_P2;PMS_P1;PMS_P2;Temp;Humidity;BMP_temperature;BMP_pressure;BME280_temperature;BME280_humidity;BME280_pressure;Samples;Min_cycle;Max_cycle;Signal;HPM_P1;HPM_P2
2023/03/29 00:01:32;;;;;;;18.42;9.57;;;13.50;86.70;;;;;;7378378;19;20369;-72
2023/03/29 00:04:01;;;;;;;16.42;8.90;;;13.50;86.90;;;;;;7378630;19;20006;-71
2023/03/29 00:06:33;;;;;;;20.63;9.25;;;13.50;87.00;;;;;;7376926;19;20006;-71
2023/03/29 00:09:04;;;;;;;18.35;9.35;;;13.50;87.00;;;;;;7377098;19;20357;-71
2023/03/29 00:11:33;;;;;;;22.65;10.25;;;13.50;87.10;;;;;;7399430;19;20027;-72
2023/03/29 00:14:01;;;;;;;17.23;9.63;;;13.50;87.20;;;;;;7377800;19;20099;-71
2023/03/29 00:16:30;;;;;;;21.55;10.40;;;13.50;87.20;;;;;;7377972;19;20234;-71
2023/03/29 00:18:59;;;;;;;27.17;9.75;;;13.50;87.10;;;;;;7378977;19;20002;-72
2023/03/29 00:21:28;;;;;;;17.05;9.80;;;13.50;86.90;;;;;;7377483;19;20004;-72
2023/03/29 00:23:59;;;;;;;19.25;9.77;;;13.50;86.60;;;;;;7378073;19;20031;-71
2023/03/29 00:26:28;;;;;;;17.95;9.70;;;13.50;87.30;;;;;;7398083;19;20011;-72
2023/03/29 00:28:57;;;;;;;20.65;8.90;;;13.50;86.70;;;;;;7377977;19;20003;-71
2023/03/29 00:31:26;;;;;;;21.35;9.60;;;13.50;86.60;;;;;;7377877;19;20381;-71
2023/03/29 00:33:55;;;;;;;18.75;9.05;;;13.50;86.20;;;;;;7376974;19;20007;-72
2023/03/29 00:36:24;;;;;;;26.00;9.88;;;13.60;86.40;;;;;;7378554;19;20010;-71
2023/03/29 00:38:53;;;;;;;17.52;9.25;;;13.50;86.70;;;;;;7377638;19;20019;-71
2023/03/29 00:41:24;;;;;;;20.33;9.38;;;13.50;87.00;;;;;;7396973;19;20002;-71
2023/03/29 00:43:59;;;;;;;17.80;8.85;;;13.50;87.20;;;;;;7376854;19;20037;-71
2023/03/29 00:46:29;;;;;;;20.83;9.07;;;13.50;86.70;;;;;;7377158;19;20365;-71
2023/03/29 00:49:03;;;;;;;17.33;8.80;;;13.50;86.50;;;;;;7376668;19;20059;-72
2023/03/29 00:51:35;;;;;;;27.20;8.60;;;13.50;86.90;;;;;;7377172;19;20379;-72
2023/03/29 00:54:07;;;;;;;15.40;8.30;;;13.50;87.00;;;;;;7377591;19;20039;-71
2023/03/29 00:56:42;;;;;;;18.58;9.23;;;13.50;87.20;;;;;;7400609;19;20272;-71
2023/03/29 00:59:17;;;;;;;18.88;8.57;;;13.50;87.60;;;;;;7377887;19;20058;-72
2023/03/29 01:01:53;;;;;;;19.33;9.07;;;13.50;87.70;;;;;;7377263;19;20010;-72
2023/03/29 01:04:29;;;;;;;19.58;8.55;;;13.40;87.80;;;;;;7380285;19;20003;-72
2023/03/29 01:07:02;;;;;;;16.80;8.00;;;13.40;88.00;;;;;;7384838;19;19998;-71
2023/03/29 01:09:36;;;;;;;15.98;8.63;;;13.30;87.90;;;;;;7383510;19;20386;-71
2023/03/29 01:12:13;;;;;;;13.75;7.90;;;13.30;88.00;;;;;;7382811;19;20000;-71
2023/03/29 01:14:47;;;;;;;17.95;8.82;;;13.20;88.10;;;;;;7405676;19;20027;-72
2023/03/29 01:17:15;;;;;;;15.07;8.23;;;13.20;88.00;;;;;;7383910;19;20007;-72
2023/03/29 01:19:49;;;;;;;24.05;9.13;;;13.20;87.70;;;;;;7383105;19;20010;-72
2023/03/29 01:22:28;;;;;;;16.98;8.82;;;13.20;87.20;;;;;;7384060;19;20007;-72
2023/03/29 01:25:10;;;;;;;15.32;8.68;;;13.10;86.70;;;;;;7383890;19;20011;-72
2023/03/29 01:27:50;;;;;;;20.77;9.07;;;13.10;86.50;;;;;;7381814;19;20010;-72
2023/03/29 01:30:27;;;;;;;16.75;8.52;;;13.00;86.10;;;;;;7383621;19;20398;-71
2023/03/29 01:33:00;;;;;;;22.27;7.32;;;13.00;86.00;;;;;;7383489;19;20149;-71
2023/03/29 01:35:36;;;;;;;16.35;9.00;;;13.00;86.10;;;;;;7405141;19;20011;-72
2023/03/29 01:38:12;;;;;;;16.58;8.23;;;13.00;86.20;;;;;;7382874;19;20014;-72
2023/03/29 01:40:41;;;;;;;18.58;8.30;;;13.00;86.30;;;;;;7382929;19;20303;-71
2023/03/29 01:43:24;;;;;;;16.95;8.05;;;13.00;86.10;;;;;;7382253;19;20007;-72
2023/03/29 01:46:02;;;;;;;18.75;8.45;;;13.00;85.60;;;;;;7381891;19;20006;-72
2023/03/29 01:48:33;;;;;;;16.02;7.78;;;13.00;85.80;;;;;;7381289;19;20258;-73
2023/03/29 01:51:07;;;;;;;16.00;8.23;;;13.00;86.10;;;;;;7381034;19;20007;-72
2023/03/29 01:53:40;;;;;;;16.23;8.35;;;13.10;86.20;;;;;;7404418;19;20232;-73
2023/03/29 01:56:13;;;;;;;16.88;7.47;;;13.00;86.40;;;;;;7382753;19;20002;-72
2023/03/29 01:58:48;;;;;;;14.95;7.78;;;13.00;86.80;;;;;;7382584;19;20015;-72
2023/03/29 02:01:21;;;;;;;17.77;7.65;;;13.00;87.20;;;;;;7383219;19;20012;-72
2023/03/29 02:03:53;;;;;;;23.73;8.10;;;13.00;87.10;;;;;;7381244;19;20364;-72
2023/03/29 02:06:27;;;;;;;17.30;7.82;;;13.00;86.90;;;;;;7383145;19;20006;-72
2023/03/29 02:08:57;;;;;;;17.67;7.18;;;13.00;86.80;;;;;;7380528;19;20007;-72
2023/03/29 02:11:28;;;;;;;17.83;7.63;;;13.00;86.90;;;;;;7401661;19;20010;-72
2023/03/29 02:13:59;;;;;;;17.55;7.95;;;13.00;87.60;;;;;;7382049;19;20017;-73
2023/03/29 02:16:29;;;;;;;13.95;7.97;;;13.00;86.90;;;;;;7380907;19;20388;-72
2023/03/29 02:18:59;;;;;;;13.13;7.25;;;13.10;87.00;;;;;;7381217;19;20006;-71
2023/03/29 02:21:32;;;;;;;17.27;7.43;;;13.10;87.20;;;;;;7380745;19;20023;-72
2023/03/29 02:24:05;;;;;;;13.77;7.78;;;13.10;87.50;;;;;;7381285;19;20026;-72
2023/03/29 02:26:34;;;;;;;13.52;7.55;;;13.10;87.50;;;;;;7404669;19;20007;-72
2023/03/29 02:29:06;;;;;;;14.25;8.05;;;13.10;87.50;;;;;;7379421;19;20027;-72
2023/03/29 02:31:37;;;;;;;;;;;13.10;87.60;;;;;;7382810;19;20385;-72
2023/03/29 02:34:12;;;;;;;16.13;7.45;;;13.20;87.70;;;;;;7381533;19;19913;-71
2023/03/29 02:36:45;;;;;;;12.95;7.10;;;13.20;87.30;;;;;;7382148;19;20269;-71
2023/03/29 02:39:16;;;;;;;13.60;7.70;;;13.20;87.20;;;;;;7382799;19;20010;-71
2023/03/29 02:41:48;;;;;;;16.48;7.68;;;13.20;87.20;;;;;;7389262;19;20027;-72
2023/03/29 02:44:23;;;;;;;17.42;7.70;;;13.30;87.30;;;;;;7403022;19;20381;-72
2023/03/29 02:46:54;;;;;;;18.98;7.85;;;13.20;87.20;;;;;;7381229;19;20002;-72
2023/03/29 02:49:24;;;;;;;14.70;7.25;;;13.20;87.40;;;;;;7381489;19;20014;-72
2023/03/29 02:51:55;;;;;;;14.82;7.32;;;13.30;87.80;;;;;;7381240;19;20057;-72
2023/03/29 02:54:25;;;;;;;;;;;13.30;88.00;;;;;;7381543;19;20239;-70
2023/03/29 02:56:58;;;;;;;19.10;7.30;;;13.30;88.00;;;;;;7381158;19;20448;-71
2023/03/29 02:59:32;;;;;;;14.05;7.18;;;13.30;87.80;;;;;;7402262;19;20063;-72
2023/03/29 03:02:01;;;;;;;20.05;7.47;;;13.30;87.80;;;;;;7380478;19;20287;-73
2023/03/29 03:04:30;;;;;;;13.77;7.38;;;13.30;88.00;;;;;;7381265;19;20013;-71
2023/03/29 03:06:59;;;;;;;16.38;7.85;;;13.30;88.10;;;;;;7380835;19;20315;-72
2023/03/29 03:09:28;;;;;;;15.65;7.25;;;13.30;88.20;;;;;;7379445;19;20011;-73
2023/03/29 03:11:56;;;;;;;17.00;7.40;;;13.30;88.30;;;;;;7380534;19;20006;-72
2023/03/29 03:14:27;;;;;;;18.20;7.95;;;13.30;88.50;;;;;;7402139;19;20010;-70
2023/03/29 03:16:58;;;;;;;14.40;7.95;;;13.30;88.50;;;;;;7379800;19;20015;-72
2023/03/29 03:19:27;;;;;;;12.85;7.50;;;13.30;88.00;;;;;;7379779;19;20073;-71
2023/03/29 03:21:55;;;;;;;18.70;8.70;;;13.30;88.40;;;;;;7379450;19;20010;-71
2023/03/29 03:24:24;;;;;;;22.65;10.52;;;13.40;89.10;;;;;;7380226;19;20007;-71
2023/03/29 03:26:53;;;;;;;13.40;7.70;;;13.40;89.40;;;;;;7377987;19;20018;-72
2023/03/29 03:29:22;;;;;;;15.45;7.22;;;13.40;89.50;;;;;;7397887;19;20007;-72
2023/03/29 03:31:51;;;;;;;13.75;7.00;;;13.30;89.20;;;;;;7379056;19;19998;-71
2023/03/29 03:34:22;;;;;;;16.67;7.05;;;13.30;89.10;;;;;;7379192;19;20003;-71
2023/03/29 03:36:50;;;;;;;;;;;13.30;88.80;;;;;;7380251;19;20023;-71
2023/03/29 03:39:19;;;;;;;14.63;7.72;;;13.40;88.90;;;;;;7378402;19;19907;-71
2023/03/29 03:41:48;;;;;;;12.20;7.55;;;13.40;88.60;;;;;;7379579;19;20023;-72
2023/03/29 03:44:16;;;;;;;16.70;8.10;;;13.40;88.60;;;;;;7400983;19;20016;-70
2023/03/29 03:46:45;;;;;;;12.02;7.60;;;13.40;88.90;;;;;;7378797;19;20284;-71
2023/03/29 03:49:14;;;;;;;13.23;6.65;;;13.40;89.10;;;;;;7379500;19;20006;-71
2023/03/29 03:51:45;;;;;;;15.95;7.38;;;13.40;88.90;;;;;;7379319;19;20010;-71
2023/03/29 03:54:14;;;;;;;;;;;13.40;88.80;;;;;;7379553;19;20007;-71
2023/03/29 03:56:43;;;;;;;21.17;7.43;;;13.50;89.10;;;;;;7399544;19;20175;-72
2023/03/29 03:59:12;;;;;;;16.33;7.78;;;13.50;88.60;;;;;;7379488;19;19998;-72
2023/03/29 04:01:42;;;;;;;15.93;7.90;;;13.40;88.40;;;;;;7378740;19;20405;-72
2023/03/29 04:04:11;;;;;;;14.18;7.43;;;13.40;88.60;;;;;;7379787;19;20010;-71
2023/03/29 04:06:40;;;;;;;15.18;7.03;;;13.40;88.80;;;;;;7380164;19;20006;-71
2023/03/29 04:09:12;;;;;;;15.88;7.30;;;13.50;89.10;;;;;;7378627;19;20010;-71
2023/03/29 04:11:40;;;;;;;15.10;7.00;;;13.50;88.80;;;;;;7400972;19;20019;-71
2023/03/29 04:14:10;;;;;;;13.10;7.25;;;13.50;88.80;;;;;;7378457;19;20102;-72
2023/03/29 04:16:38;;;;;;;20.23;7.72;;;13.50;88.80;;;;;;7378468;19;20393;-72
2023/03/29 04:19:07;;;;;;;16.33;7.18;;;13.50;88.80;;;;;;7378065;19;20014;-72
2023/03/29 04:21:36;;;;;;;14.77;7.75;;;13.50;88.90;;;;;;7377377;19;20007;-72
2023/03/29 04:24:04;;;;;;;13.00;6.75;;;13.50;89.10;;;;;;7379298;19;20036;-71
2023/03/29 04:26:36;;;;;;;21.75;7.72;;;13.50;89.30;;;;;;7398182;19;20007;-72
2023/03/29 04:29:04;;;;;;;11.38;6.50;;;13.60;89.50;;;;;;7376885;19;20085;-72
2023/03/29 04:31:33;;;;;;;16.38;6.60;;;13.60;89.40;;;;;;7378181;19;20007;-71
2023/03/29 04:34:02;;;;;;;13.98;6.82;;;13.60;89.30;;;;;;7379111;19;20006;-72
2023/03/29 04:36:31;;;;;;;14.90;7.45;;;13.60;89.10;;;;;;7379233;19;20006;-71
2023/03/29 04:39:00;;;;;;;19.63;6.93;;;13.60;89.10;;;;;;7381326;19;20031;-71
2023/03/29 04:41:29;;;;;;;19.60;6.90;;;13.60;89.10;;;;;;7405365;19;20014;-71
2023/03/29 04:44:01;;;;;;;18.67;7.47;;;13.60;89.00;;;;;;7385742;19;20007;-72
2023/03/29 04:46:31;;;;;;;14.35;6.80;;;13.70;88.90;;;;;;7386145;19;20259;-74
2023/03/29 04:49:00;;;;;;;14.35;6.65;;;13.70;88.90;;;;;;7386148;19;20022;-72
2023/03/29 04:51:29;;;;;;;17.25;6.97;;;13.70;89.00;;;;;;7383237;19;20011;-73
2023/03/29 04:53:57;;;;;;;13.02;6.70;;;13.70;89.10;;;;;;7385131;19;20062;-72
2023/03/29 04:56:26;;;;;;;13.55;6.35;;;13.70;89.40;;;;;;7407574;19;20014;-74
2023/03/29 04:58:55;;;;;;;10.50;5.97;;;13.70;89.80;;;;;;7384565;19;20003;-74
2023/03/29 05:01:26;;;;;;;11.48;6.10;;;13.70;90.00;;;;;;7385208;19;20098;-73
2023/03/29 05:03:55;;;;;;;12.18;5.75;;;13.70;90.10;;;;;;7386748;19;20007;-72
2023/03/29 05:06:24;;;;;;;14.02;5.85;;;13.70;90.10;;;;;;7378498;19;20039;-72
2023/03/29 05:08:52;;;;;;;21.00;6.07;;;13.70;90.20;;;;;;7406063;19;20105;-72
2023/03/29 05:11:23;;;;;;;13.82;5.50;;;13.70;90.40;;;;;;7385861;19;20002;-72
2023/03/29 05:13:54;;;;;;;9.88;4.90;;;13.70;90.40;;;;;;7386401;19;20450;-72
2023/03/29 05:16:28;;;;;;;11.48;4.90;;;13.70;90.40;;;;;;7387118;19;20006;-72
2023/03/29 05:18:57;;;;;;;12.52;5.88;;;13.70;90.30;;;;;;7387683;19;20003;-71
2023/03/29 05:21:27;;;;;;;12.60;5.18;;;13.70;90.20;;;;;;7384853;19;20006;-72
2023/03/29 05:23:56;;;;;;;17.13;5.05;;;13.70;90.30;;;;;;7405437;19;20006;-72
2023/03/29 05:26:25;;;;;;;11.20;5.20;;;13.70;90.30;;;;;;7385388;19;20276;-72
2023/03/29 05:28:54;;;;;;;13.45;5.10;;;13.70;90.30;;;;;;7384536;19;20027;-72
2023/03/29 05:31:27;;;;;;;9.50;4.63;;;13.80;90.40;;;;;;7384886;19;20272;-71
2023/03/29 05:33:55;;;;;;;12.25;4.32;;;13.70;90.60;;;;;;7386658;19;20131;-72
2023/03/29 05:36:24;;;;;;;10.60;4.38;;;13.70;90.80;;;;;;7384192;19;20014;-71
2023/03/29 05:38:53;;;;;;;8.48;5.03;;;13.70;90.80;;;;;;7408867;19;20007;-72
2023/03/29 05:41:22;;;;;;;13.05;5.13;;;13.70;90.90;;;;;;7385871;19;20006;-72
2023/03/29 05:43:51;;;;;;;12.05;5.10;;;13.80;91.00;;;;;;7385490;19;20014;-72
2023/03/29 05:46:20;;;;;;;12.88;5.18;;;13.80;91.00;;;;;;7385826;19;20263;-72
2023/03/29 05:48:51;;;;;;;17.48;4.75;;;13.80;91.10;;;;;;7385486;19;20017;-74
2023/03/29 05:51:23;;;;;;;16.15;4.68;;;13.80;91.10;;;;;;7383086;19;20361;-73
2023/03/29 05:53:52;;;;;;;13.90;4.72;;;13.80;91.20;;;;;;7407718;19;20074;-73
2023/03/29 05:56:21;;;;;;;13.65;5.00;;;13.90;91.50;;;;;;7385736;19;20007;-72
2023/03/29 05:58:50;;;;;;;17.05;5.10;;;13.90;91.20;;;;;;7385539;19;20063;-71
2023/03/29 06:01:21;;;;;;;13.32;4.57;;;13.90;91.20;;;;;;7384070;19;20003;-72
2023/03/29 06:03:52;;;;;;;17.93;4.60;;;13.90;91.20;;;;;;7382976;19;20688;-72
2023/03/29 06:06:21;;;;;;;10.63;4.53;;;13.90;91.20;;;;;;7384657;19;20035;-71
2023/03/29 06:08:50;;;;;;;17.67;4.38;;;13.90;91.20;;;;;;7403154;19;20007;-71
2023/03/29 06:11:21;;;;;;;10.35;4.53;;;13.90;91.20;;;;;;7384231;19;20425;-71
2023/03/29 06:13:50;;;;;;;11.73;4.05;;;13.90;91.20;;;;;;7384263;19;20013;-71
2023/03/29 06:16:19;;;;;;;14.23;4.80;;;14.00;91.30;;;;;;7383358;19;20013;-71
2023/03/29 06:18:47;;;;;;;12.15;4.63;;;14.00;91.40;;;;;;7384437;19;20094;-71
2023/03/29 06:21:19;;;;;;;9.65;4.35;;;14.00;91.40;;;;;;7382196;19;20370;-71
2023/03/29 06:23:47;;;;;;;14.68;4.80;;;13.90;91.70;;;;;;7403225;19;20226;-71
2023/03/29 06:26:16;;;;;;;13.65;4.65;;;14.00;91.80;;;;;;7383763;19;20073;-71
2023/03/29 06:28:45;;;;;;;11.75;4.82;;;14.00;91.50;;;;;;7383275;19;20010;-71
2023/03/29 06:31:14;;;;;;;14.07;5.05;;;14.10;91.50;;;;;;7384331;19;20014;-72
2023/03/29 06:33:42;;;;;;;11.57;4.90;;;14.10;91.40;;;;;;7383155;19;20006;-71
2023/03/29 06:36:14;;;;;;;10.20;4.78;;;14.10;91.60;;;;;;7405611;19;20015;-71
2023/03/29 06:38:46;;;;;;;10.07;5.07;;;14.10;91.20;;;;;;7383444;19;20027;-71
2023/03/29 06:41:15;;;;;;;12.88;5.28;;;14.10;91.20;;;;;;7383436;19;20006;-72
2023/03/29 06:43:44;;;;;;;12.15;4.95;;;14.20;91.20;;;;;;7382365;19;20066;-72
2023/03/29 06:46:13;;;;;;;12.20;4.38;;;14.20;91.20;;;;;;7384218;19;20031;-72
2023/03/29 06:48:42;;;;;;;11.65;4.70;;;14.20;91.20;;;;;;7381745;19;20006;-73
2023/03/29 06:51:11;;;;;;;13.50;5.20;;;14.20;91.20;;;;;;7402788;19;20003;-73
2023/03/29 06:53:39;;;;;;;21.40;5.78;;;14.30;91.20;;;;;;7382714;19;20027;-71
2023/03/29 06:56:11;;;;;;;12.32;5.00;;;14.30;91.10;;;;;;7382624;19;20075;-72
2023/03/29 06:58:40;;;;;;;12.02;5.00;;;14.30;91.10;;;;;;7382768;19;20071;-73
2023/03/29 07:01:08;;;;;;;13.95;5.13;;;14.30;91.10;;;;;;7382007;19;20013;-72
2023/03/29 07:03:38;;;;;;;17.42;5.43;;;14.30;91.00;;;;;;7381930;19;20011;-72
2023/03/29 07:06:11;;;;;;;12.05;5.35;;;14.30;91.00;;;;;;7406331;19;20007;-72
2023/03/29 07:08:42;;;;;;;12.23;5.47;;;14.30;90.90;;;;;;7384065;19;20017;-72
2023/03/29 07:11:17;;;;;;;19.65;5.30;;;14.40;90.80;;;;;;7383961;19;20256;-72
2023/03/29 07:13:47;;;;;;;13.60;4.68;;;14.40;90.70;;;;;;7382649;19;19998;-73
2023/03/29 07:16:17;;;;;;;14.15;4.90;;;14.40;90.50;;;;;;7382958;19;20014;-72
2023/03/29 07:18:47;;;;;;;11.15;4.63;;;14.50;90.30;;;;;;7383536;19;20013;-73
2023/03/29 07:21:16;;;;;;;14.27;4.43;;;14.40;90.30;;;;;;7380906;19;20007;-73
2023/03/29 07:23:44;;;;;;;13.07;4.68;;;14.40;90.30;;;;;;7403286;19;20007;-73
2023/03/29 07:26:19;;;;;;;15.90;5.25;;;14.50;90.40;;;;;;7382574;19;20010;-73
2023/03/29 07:28:48;;;;;;;12.95;4.85;;;14.50;90.40;;;;;;7381684;19;19998;-73
2023/03/29 07:31:17;;;;;;;13.63;4.90;;;14.40;90.40;;;;;;7381106;19;20058;-73
2023/03/29 07:33:48;;;;;;;11.45;4.50;;;14.50;90.50;;;;;;7382531;19;20010;-73
2023/03/29 07:36:17;;;;;;;15.45;5.30;;;14.50;90.50;;;;;;7381581;19;20369;-72
2023/03/29 07:38:47;;;;;;;11.70;4.40;;;14.50;90.60;;;;;;7403131;19;20058;-73
2023/03/29 07:41:18;;;;;;;11.77;4.95;;;14.50;90.60;;;;;;7381223;19;20007;-72
2023/03/29 07:43:47;;;;;;;5.97;4.10;;;14.60;90.60;;;;;;7381330;19;20251;-73
2023/03/29 07:46:15;;;;;;;13.32;4.18;;;14.70;90.60;;;;;;7380527;19;20007;-72
2023/03/29 07:48:44;;;;;;;11.38;4.70;;;14.80;90.90;;;;;;7381405;19;20017;-72
2023/03/29 07:51:13;;;;;;;20.48;4.30;;;14.70;90.60;;;;;;7399990;19;20023;-72
2023/03/29 07:53:41;;;;;;;11.73;4.22;;;14.80;90.60;;;;;;7400225;19;19998;-72
2023/03/29 07:56:11;;;;;;;14.45;5.13;;;14.80;90.70;;;;;;7381158;19;20011;-71
2023/03/29 07:58:42;;;;;;;16.33;5.22;;;14.80;90.60;;;;;;7379994;19;20007;-72
2023/03/29 08:01:14;;;;;;;15.57;4.50;;;14.80;90.80;;;;;;7380978;19;20019;-71
2023/03/29 08:03:43;;;;;;;13.93;4.82;;;14.90;90.80;;;;;;7381466;19;20006;-73
2023/03/29 08:06:11;;;;;;;23.35;5.40;;;15.00;90.70;;;;;;7400579;19;20075;-72
2023/03/29 08:08:40;;;;;;;12.40;4.60;;;15.00;90.80;;;;;;7380012;19;20002;-72
2023/03/29 08:11:09;;;;;;;8.90;4.22;;;15.10;90.80;;;;;;7380128;19;20023;-72
2023/03/29 08:13:38;;;;;;;12.63;4.60;;;15.00;91.00;;;;;;7378632;19;20022;-72
2023/03/29 08:16:10;;;;;;;15.02;4.13;;;15.10;90.90;;;;;;7380838;19;19998;-73
2023/03/29 08:18:39;;;;;;;19.55;4.97;;;15.10;91.10;;;;;;7379881;19;20011;-72
2023/03/29 08:21:08;;;;;;;8.35;4.35;;;15.10;91.10;;;;;;7400022;19;20010;-72
2023/03/29 08:23:37;;;;;;;20.25;4.57;;;15.20;91.10;;;;;;7379488;19;20010;-72
2023/03/29 08:26:07;;;;;;;16.17;4.68;;;15.30;91.50;;;;;;7379827;19;20002;-72
2023/03/29 08:28:36;;;;;;;10.50;4.88;;;15.30;91.20;;;;;;7379359;19;20044;-72
2023/03/29 08:31:05;;;;;;;15.77;4.97;;;15.00;91.50;;;;;;7380066;19;20017;-72
2023/03/29 08:33:37;;;;;;;14.60;5.65;;;15.10;91.70;;;;;;7381548;19;19999;-72
2023/03/29 08:36:07;;;;;;;10.48;4.57;;;15.20;91.70;;;;;;7400533;19;20009;-72
2023/03/29 08:38:35;;;;;;;16.05;5.07;;;15.20;91.60;;;;;;7379026;19;20007;-72
2023/03/29 08:41:19;;;;;;;15.68;4.53;;;15.30;91.60;;;;;;7379582;19;20002;-72
2023/03/29 08:44:05;;;;;;;18.63;4.68;;;15.40;91.60;;;;;;7380806;19;20010;-72
2023/03/29 08:46:41;;;;;;;18.90;4.50;;;15.40;91.70;;;;;;7379412;19;20058;-72
2023/03/29 08:49:13;;;;;;;15.50;4.38;;;15.50;91.80;;;;;;7379489;19;20011;-72
2023/03/29 08:51:45;;;;;;;18.17;4.18;;;15.60;91.70;;;;;;7379642;19;20013;-72
2023/03/29 08:54:18;;;;;;;16.92;4.10;;;15.60;91.90;;;;;;7384235;19;20058;-72
2023/03/29 08:56:48;;;;;;;10.43;4.25;;;15.70;91.90;;;;;;7399860;19;20015;-72
2023/03/29 08:59:21;;;;;;;15.20;4.07;;;15.80;91.90;;;;;;7377988;19;20379;-72
2023/03/29 09:01:54;;;;;;;15.68;3.58;;;15.80;91.80;;;;;;7378746;19;20023;-72
2023/03/29 09:04:29;;;;;;;24.83;4.65;;;15.80;92.00;;;;;;7377538;19;20014;-71
2023/03/29 09:06:58;;;;;;;16.55;3.90;;;15.70;91.90;;;;;;7378969;19;20024;-72
2023/03/29 09:09:34;;;;;;;14.18;3.92;;;15.60;92.20;;;;;;7378712;19;20010;-72
2023/03/29 09:12:14;;;;;;;10.82;3.92;;;15.60;92.40;;;;;;7398316;19;19999;-72
2023/03/29 09:14:57;;;;;;;17.55;4.22;;;15.80;92.50;;;;;;7378326;19;20003;-72
2023/03/29 09:17:38;;;;;;;11.27;3.95;;;15.80;92.00;;;;;;7377828;19;20007;-72
2023/03/29 09:20:19;;;;;;;13.10;4.20;;;15.80;92.10;;;;;;7377380;19;20031;-71
2023/03/29 09:22:58;;;;;;;14.82;4.30;;;16.00;91.90;;;;;;7379896;19;20031;-72
2023/03/29 09:25:33;;;;;;;12.35;3.58;;;16.10;91.80;;;;;;7379476;19;20011;-71
2023/03/29 09:28:07;;;;;;;10.27;3.78;;;16.10;92.10;;;;;;7385580;19;20006;-71
2023/03/29 09:30:41;;;;;;;15.02;3.67;;;16.10;92.00;;;;;;7383907;19;20054;-72
2023/03/29 09:33:18;;;;;;;10.68;4.00;;;16.30;91.90;;;;;;7404866;19;20357;-71
2023/03/29 09:35:56;;;;;;;22.65;4.72;;;16.40;91.60;;;;;;7384939;19;20374;-72
2023/03/29 09:38:24;;;;;;;23.23;4.32;;;16.50;91.60;;;;;;7386046;19;20075;-72
2023/03/29 09:40:56;;;;;;;16.88;4.00;;;16.60;91.50;;;;;;7385291;19;20007;-72
2023/03/29 09:43:32;;;;;;;14.82;3.83;;;16.30;91.70;;;;;;7384823;19;20003;-72
2023/03/29 09:46:05;;;;;;;14.15;4.32;;;16.30;91.90;;;;;;7384067;19;20007;-71
2023/03/29 09:48:40;;;;;;;14.25;4.30;;;16.40;91.90;;;;;;7383724;19;20017;-71
2023/03/29 09:51:14;;;;;;;12.75;3.72;;;16.50;91.80;;;;;;7405139;19;20358;-72
2023/03/29 09:53:43;;;;;;;18.67;4.20;;;16.50;92.10;;;;;;7384358;19;20014;-71
2023/03/29 09:56:14;;;;;;;16.95;4.35;;;16.70;91.70;;;;;;7383983;19;20024;-71
2023/03/29 09:58:43;;;;;;;;;;;16.50;91.90;;;;;;7385877;19;20402;-72
2023/03/29 10:01:16;;;;;;;23.90;5.10;;;16.70;91.90;;;;;;7385543;19;19928;-71
2023/03/29 10:03:50;;;;;;;15.35;3.75;;;16.50;92.00;;;;;;7383931;19;20011;-72
2023/03/29 10:06:25;;;;;;;14.77;4.07;;;16.20;92.40;;;;;;7386869;19;20007;-72
2023/03/29 10:08:57;;;;;;;15.68;4.30;;;16.30;92.40;;;;;;7407591;19;20010;-71
2023/03/29 10:11:33;;;;;;;12.98;3.17;;;15.90;92.60;;;;;;7381408;19;20003;-71
2023/03/29 10:14:06;;;;;;;13.65;3.58;;;16.00;92.60;;;;;;7383034;19;20014;-71
2023/03/29 10:16:38;;;;;;;11.70;3.03;;;16.20;92.40;;;;;;7383168;19;20027;-72
2023/03/29 10:19:20;;;;;;;10.68;3.40;;;16.30;92.20;;;;;;7383273;19;20314;-72
2023/03/29 10:21:52;;;;;;;16.05;3.35;;;16.40;91.70;;;;;;7381710;19;20368;-71
2023/03/29 10:24:22;;;;;;;8.07;2.80;;;16.50;91.50;;;;;;7381199;19;20224;-71
2023/03/29 10:26:55;;;;;;;11.75;2.97;;;16.60;90.60;;;;;;7406283;19;20212;-71
2023/03/29 10:29:25;;;;;;;10.55;2.60;;;16.60;90.50;;;;;;7383021;19;20002;-71
2023/03/29 10:31:55;;;;;;;9.35;2.58;;;16.70;90.30;;;;;;7382860;19;20003;-71
2023/03/29 10:34:26;;;;;;;8.93;2.40;;;16.60;89.20;;;;;;7383248;19;20006;-72
2023/03/29 10:37:02;;;;;;;8.20;2.30;;;16.60;86.60;;;;;;7382357;19;19999;-72
2023/03/29 10:39:35;;;;;;;10.75;2.28;;;16.60;84.40;;;;;;7383206;19;20552;-71
2023/03/29 10:42:07;;;;;;;9.50;2.03;;;16.70;84.10;;;;;;7405677;19;20007;-71
2023/03/29 10:44:39;;;;;;;8.88;2.10;;;16.80;82.30;;;;;;7382610;19;20007;-71
2023/03/29 10:47:19;;;;;;;5.38;2.15;;;16.90;79.70;;;;;;7382455;19;20016;-71
2023/03/29 10:49:52;;;;;;;11.25;2.10;;;16.80;79.30;;;;;;7382223;19;20078;-71
2023/03/29 10:52:26;;;;;;;11.10;2.20;;;16.90;80.20;;;;;;7382843;19;20102;-71
2023/03/29 10:54:58;;;;;;;6.22;2.05;;;17.00;79.20;;;;;;7382299;19;20010;-71
2023/03/29 10:57:35;;;;;;;8.73;2.60;;;17.00;79.60;;;;;;7378998;19;20007;-71
2023/03/29 11:00:11;;;;;;;7.38;2.63;;;17.10;80.50;;;;;;7404258;19;20011;-71
2023/03/29 11:03:09;;;;;;;7.13;2.35;;;17.10;79.50;;;;;;7381424;19;20019;-71
2023/03/29 11:05:45;;;;;;;10.02;2.88;;;17.10;79.70;;;;;;7381916;19;20007;-71
2023/03/29 11:08:41;;;;;;;7.82;2.63;;;17.00;80.30;;;;;;7381497;19;20058;-71
2023/03/29 11:11:35;;;;;;;8.85;2.40;;;17.20;79.90;;;;;;7380715;19;20019;-72
2023/03/29 11:14:09;;;;;;;10.77;2.13;;;17.40;79.10;;;;;;7381658;19;20007;-72
2023/03/29 11:16:46;;;;;;;10.82;2.35;;;17.40;78.30;;;;;;7381860;19;20271;-72
2023/03/29 11:19:30;;;;;;;6.10;2.08;;;17.50;78.60;;;;;;7381553;19;19998;-72
2023/03/29 11:22:03;;;;;;;7.80;1.83;;;17.70;78.30;;;;;;7383461;19;20052;-72
2023/03/29 11:24:51;;;;;;;6.63;2.15;;;17.60;78.00;;;;;;7382944;19;20234;-73
2023/03/29 11:27:30;;;;;;;13.32;2.03;;;17.80;78.00;;;;;;7385731;19;20066;-72
2023/03/29 11:30:14;;;;;;;12.60;1.77;;;17.90;77.50;;;;;;7406226;19;20006;-72
2023/03/29 11:32:53;;;;;;;8.82;2.22;;;18.00;77.70;;;;;;7385173;19;20007;-72
2023/03/29 11:35:42;;;;;;;8.48;1.92;;;18.20;76.80;;;;;;7382184;19;20154;-72
2023/03/29 11:38:21;;;;;;;9.75;2.08;;;18.20;75.50;;;;;;7381389;19;20003;-72
2023/03/29 11:41:00;;;;;;;8.35;1.92;;;18.30;76.20;;;;;;7382018;19;20011;-72
2023/03/29 11:43:35;;;;;;;8.15;2.30;;;18.40;76.00;;;;;;7381886;19;20404;-72
2023/03/29 11:46:13;;;;;;;7.20;1.88;;;18.50;74.70;;;;;;7381406;19;20009;-72
2023/03/29 11:48:47;;;;;;;8.18;1.95;;;18.50;74.50;;;;;;7379394;19;20007;-72
2023/03/29 11:51:20;;;;;;;6.38;1.70;;;18.60;73.30;;;;;;7379741;19;20006;-72
2023/03/29 11:53:58;;;;;;;7.25;1.60;;;18.70;73.30;;;;;;7401071;19;20370;-72
2023/03/29 11:56:35;;;;;;;12.60;1.80;;;18.70;73.20;;;;;;7380914;19;20106;-72
2023/03/29 11:59:11;;;;;;;3.05;1.45;;;18.70;72.50;;;;;;7382822;19;20381;-72
2023/03/29 12:01:45;;;;;;;7.40;2.00;;;18.70;71.90;;;;;;7382846;19;20373;-72
2023/03/29 12:04:21;;;;;;;10.30;1.85;;;18.80;71.90;;;;;;7384453;19;20019;-72
2023/03/29 12:06:56;;;;;;;7.57;1.65;;;18.80;71.70;;;;;;7382764;19;20042;-72
2023/03/29 12:09:32;;;;;;;11.25;2.00;;;18.80;70.50;;;;;;7381168;19;20003;-72
2023/03/29 12:12:08;;;;;;;10.30;1.92;;;18.80;70.10;;;;;;7400693;19;20015;-71
2023/03/29 12:14:51;;;;;;;4.82;1.92;;;18.90;70.30;;;;;;7380603;19;20024;-71
2023/03/29 12:17:23;;;;;;;7.88;2.13;;;19.00;71.80;;;;;;7380432;19;20050;-72
2023/03/29 12:20:01;;;;;;;5.30;1.90;;;19.20;73.10;;;;;;7380117;19;20350;-71
2023/03/29 12:22:30;;;;;;;6.88;1.73;;;19.30;72.60;;;;;;7380855;19;19998;-71
2023/03/29 12:24:59;;;;;;;4.07;1.63;;;19.40;72.80;;;;;;7380602;19;20428;-71
2023/03/29 12:27:35;;;;;;;6.05;1.50;;;19.50;70.80;;;;;;7380435;19;20027;-72
2023/03/29 12:30:27;;;;;;;8.52;2.28;;;19.50;69.70;;;;;;7399997;19;20232;-72
2023/03/29 12:33:29;;;;;;;5.75;2.30;;;19.50;68.40;;;;;;7379863;19;20010;-72
2023/03/29 12:36:11;;;;;;;5.15;2.08;;;19.50;68.80;;;;;;7379507;19;20019;-72
2023/03/29 12:38:41;;;;;;;5.53;1.80;;;19.60;68.00;;;;;;7379858;19;20007;-72
2023/03/29 12:41:18;;;;;;;7.30;2.00;;;19.60;67.50;;;;;;7379331;19;20064;-72
2023/03/29 12:43:50;;;;;;;2.63;1.80;;;19.50;68.00;;;;;;7378958;19;20027;-72
2023/03/29 12:46:22;;;;;;;2.83;1.48;;;19.50;67.50;;;;;;7379803;19;20003;-72
2023/03/29 12:48:56;;;;;;;5.40;1.55;;;19.40;66.70;;;;;;7378554;19;20018;-72
2023/03/29 12:51:31;;;;;;;9.20;1.85;;;19.30;67.80;;;;;;7381101;19;20019;-72
2023/03/29 12:54:08;;;;;;;7.00;2.17;;;19.30;69.40;;;;;;7401075;19;20013;-72
2023/03/29 12:56:41;;;;;;;8.48;1.85;;;19.30;70.40;;;;;;7380976;19;20005;-72
2023/03/29 12:59:28;;;;;;;3.45;1.52;;;19.30;70.00;;;;;;7379145;19;20343;-72
2023/03/29 13:02:07;;;;;;;4.65;1.48;;;19.40;70.20;;;;;;7386218;19;20014;-72
2023/03/29 13:04:49;;;;;;;4.72;1.73;;;19.40;69.90;;;;;;7385129;19;20010;-72
2023/03/29 13:07:32;;;;;;;5.97;1.52;;;19.50;68.70;;;;;;7386865;19;20010;-72